sensor_id;sensor_type;location;lat;lon;timestamp;pressure;altitude;pressure_sealevel;temperature;humidity
76205;BME280;64986;55.672;37.628;2023-07-08T00:02:16;99365.06;;;19.63;nan
76205;BME280;64986;55.672;37.628;2023-07-08T00:04:42;99363.97;;;19.64;nan
76205;BME280;64986;55.672;37.628;2023-07-08T00:07:16;99365.34;;;19.67;nan
76205;BME280;64986;55.672;37.628;2023-07-08T00:09:45;99354.38;;;19.58;nan
76205;BME280;64986;55.672;37.628;2023-07-08T00:12:11;99347.13;;;19.54;nan
76205;BME280;64986;55.672;37.628;2023-07-08T00:14:37;99355.47;;;19.57;nan
76205;BME280;64986;55.672;37.628;2023-07-08T00:17:08;99370.13;;;19.60;nan
76205;BME280;64986;55.672;37.628;2023-07-08T00:19:34;99359.69;;;19.53;nan
76205;BME280;64986;55.672;37.628;2023-07-08T00:21:59;99373.56;;;19.45;nan
76205;BME280;64986;55.672;37.628;2023-07-08T00:24:26;99376.22;;;19.45;nan
76205;BME280;64986;55.672;37.628;2023-07-08T00:26:51;99379.72;;;19.46;nan
76205;BME280;64986;55.672;37.628;2023-07-08T00:29:17;99374.63;;;19.44;nan
76205;BME280;64986;55.672;37.628;2023-07-08T00:31:42;99374.06;;;19.42;nan
76205;BME280;64986;55.672;37.628;2023-07-08T00:34:08;99366.63;;;19.44;nan
76205;BME280;64986;55.672;37.628;2023-07-08T00:36:34;99373.84;;;19.44;nan
76205;BME280;64986;55.672;37.628;2023-07-08T00:39:00;99379.72;;;19.51;nan
76205;BME280;64986;55.672;37.628;2023-07-08T00:41:30;99371.44;;;19.47;nan
76205;BME280;64986;55.672;37.628;2023-07-08T00:43:58;99385.03;;;19.56;nan
76205;BME280;64986;55.672;37.628;2023-07-08T00:51:39;99384.78;;;19.52;nan
76205;BME280;64986;55.672;37.628;2023-07-08T00:54:15;99376.00;;;19.57;nan
76205;BME280;64986;55.672;37.628;2023-07-08T00:56:49;99382.69;;;19.64;nan
76205;BME280;64986;55.672;37.628;2023-07-08T00:59:23;99378.97;;;19.65;nan
76205;BME280;64986;55.672;37.628;2023-07-08T01:01:50;99385.91;;;19.66;nan
76205;BME280;64986;55.672;37.628;2023-07-08T01:04:18;99389.09;;;19.68;nan
76205;BME280;64986;55.672;37.628;2023-07-08T01:06:48;99379.19;;;19.64;nan
76205;BME280;64986;55.672;37.628;2023-07-08T01:09:18;99385.88;;;19.72;nan
76205;BME280;64986;55.672;37.628;2023-07-08T01:11:44;99389.34;;;19.72;nan
76205;BME280;64986;55.672;37.628;2023-07-08T01:14:12;99392.84;;;19.78;nan
76205;BME280;64986;55.672;37.628;2023-07-08T01:16:42;99384.53;;;19.79;nan
76205;BME280;64986;55.672;37.628;2023-07-08T01:19:14;99393.38;;;19.90;nan
76205;BME280;64986;55.672;37.628;2023-07-08T01:21:58;99399.78;;;19.99;nan
76205;BME280;64986;55.672;37.628;2023-07-08T01:24:25;99390.69;;;19.85;nan
76205;BME280;64986;55.672;37.628;2023-07-08T01:26:51;99401.09;;;19.86;nan
76205;BME280;64986;55.672;37.628;2023-07-08T01:29:17;99395.53;;;19.88;nan
76205;BME280;64986;55.672;37.628;2023-07-08T01:31:42;99402.19;;;19.90;nan
76205;BME280;64986;55.672;37.628;2023-07-08T01:34:14;99400.84;;;19.83;nan
76205;BME280;64986;55.672;37.628;2023-07-08T01:36:44;99403.53;;;19.88;nan
76205;BME280;64986;55.672;37.628;2023-07-08T01:39:17;99400.03;;;19.87;nan
76205;BME280;64986;55.672;37.628;2023-07-08T01:41:44;99408.59;;;19.94;nan
76205;BME280;64986;55.672;37.628;2023-07-08T01:44:42;99400.31;;;19.96;nan
76205;BME280;64986;55.672;37.628;2023-07-08T01:47:14;99392.31;;;19.91;nan
76205;BME280;64986;55.672;37.628;2023-07-08T01:49:42;99395.78;;;19.97;nan
76205;BME280;64986;55.672;37.628;2023-07-08T01:52:08;99391.25;;;19.97;nan
76205;BME280;64986;55.672;37.628;2023-07-08T01:54:35;99395.22;;;20.00;nan
76205;BME280;64986;55.672;37.628;2023-07-08T01:57:01;99388.81;;;20.01;nan
76205;BME280;64986;55.672;37.628;2023-07-08T01:59:28;99386.94;;;20.01;nan
76205;BME280;64986;55.672;37.628;2023-07-08T02:01:54;99381.34;;;20.03;nan
76205;BME280;64986;55.672;37.628;2023-07-08T02:04:24;99385.63;;;20.04;nan
76205;BME280;64986;55.672;37.628;2023-07-08T02:07:00;99400.31;;;20.06;nan
76205;BME280;64986;55.672;37.628;2023-07-08T02:09:25;99397.13;;;20.04;nan
76205;BME280;64986;55.672;37.628;2023-07-08T02:11:54;99397.38;;;20.08;nan
76205;BME280;64986;55.672;37.628;2023-07-08T02:14:19;99386.94;;;20.11;nan
76205;BME280;64986;55.672;37.628;2023-07-08T02:16:45;99398.16;;;20.13;nan
76205;BME280;64986;55.672;37.628;2023-07-08T02:19:11;99384.78;;;20.08;nan
76205;BME280;64986;55.672;37.628;2023-07-08T02:21:37;99378.38;;;20.09;nan
76205;BME280;64986;55.672;37.628;2023-07-08T02:24:03;99379.97;;;20.15;nan
76205;BME280;64986;55.672;37.628;2023-07-08T02:26:29;99367.69;;;20.19;nan
76205;BME280;64986;55.672;37.628;2023-07-08T02:29:00;99377.81;;;20.22;nan
76205;BME280;64986;55.672;37.628;2023-07-08T02:31:26;99393.88;;;20.28;nan
76205;BME280;64986;55.672;37.628;2023-07-08T02:33:52;99392.78;;;20.29;nan
76205;BME280;64986;55.672;37.628;2023-07-08T02:36:19;99386.38;;;20.24;nan
76205;BME280;64986;55.672;37.628;2023-07-08T02:38:44;99386.91;;;20.27;nan
76205;BME280;64986;55.672;37.628;2023-07-08T02:41:10;99386.91;;;20.27;nan
76205;BME280;64986;55.672;37.628;2023-07-08T02:43:39;99394.09;;;20.36;nan
76205;BME280;64986;55.672;37.628;2023-07-08T02:46:05;99394.34;;;20.40;nan
76205;BME280;64986;55.672;37.628;2023-07-08T02:48:30;99401.09;;;20.27;nan
76205;BME280;64986;55.672;37.628;2023-07-08T02:51:00;99407.22;;;20.22;nan
76205;BME280;64986;55.672;37.628;2023-07-08T02:53:26;99397.63;;;20.11;nan
76205;BME280;64986;55.672;37.628;2023-07-08T02:55:51;99382.66;;;20.15;nan
76205;BME280;64986;55.672;37.628;2023-07-08T02:58:17;99378.09;;;20.16;nan
76205;BME280;64986;55.672;37.628;2023-07-08T03:00:42;99381.03;;;20.24;nan
76205;BME280;64986;55.672;37.628;2023-07-08T03:03:08;99354.31;;;20.14;nan
76205;BME280;64986;55.672;37.628;2023-07-08T03:05:33;99357.50;;;20.21;nan
76205;BME280;64986;55.672;37.628;2023-07-08T03:07:59;99361.22;;;20.31;nan
76205;BME280;64986;55.672;37.628;2023-07-08T03:10:25;99362.53;;;20.43;nan
76205;BME280;64986;55.672;37.628;2023-07-08T03:12:50;99360.13;;;20.52;nan
76205;BME280;64986;55.672;37.628;2023-07-08T03:15:16;99367.34;;;20.57;nan
76205;BME280;64986;55.672;37.628;2023-07-08T03:17:42;99384.13;;;20.72;nan
76205;BME280;64986;55.672;37.628;2023-07-08T03:20:09;99398.56;;;20.76;nan
76205;BME280;64986;55.672;37.628;2023-07-08T03:22:36;99404.69;;;20.82;nan
76205;BME280;64986;55.672;37.628;2023-07-08T03:25:02;99392.81;;;21.03;nan
76205;BME280;64986;55.672;37.628;2023-07-08T03:27:27;99392.97;;;21.27;nan
76205;BME280;64986;55.672;37.628;2023-07-08T03:29:53;99394.69;;;21.52;nan
76205;BME280;64986;55.672;37.628;2023-07-08T03:32:18;99389.41;;;21.76;nan
76205;BME280;64986;55.672;37.628;2023-07-08T03:34:44;99385.06;;;21.85;nan
76205;BME280;64986;55.672;37.628;2023-07-08T03:37:09;99370.13;;;21.74;nan
76205;BME280;64986;55.672;37.628;2023-07-08T03:39:35;99369.19;;;21.60;nan
76205;BME280;64986;55.672;37.628;2023-07-08T03:42:00;99369.88;;;21.37;nan
76205;BME280;64986;55.672;37.628;2023-07-08T03:44:26;99357.63;;;21.25;nan
76205;BME280;64986;55.672;37.628;2023-07-08T03:46:52;99365.13;;;21.23;nan
76205;BME280;64986;55.672;37.628;2023-07-08T03:49:19;99359.44;;;21.40;nan
76205;BME280;64986;55.672;37.628;2023-07-08T03:51:48;99371.00;;;21.70;nan
76205;BME280;64986;55.672;37.628;2023-07-08T03:54:14;99372.22;;;21.82;nan
76205;BME280;64986;55.672;37.628;2023-07-08T03:56:40;99374.81;;;21.93;nan
76205;BME280;64986;55.672;37.628;2023-07-08T03:59:06;99371.25;;;22.02;nan
76205;BME280;64986;55.672;37.628;2023-07-08T04:01:31;99371.47;;;22.06;nan
76205;BME280;64986;55.672;37.628;2023-07-08T04:03:58;99367.06;;;22.20;nan
76205;BME280;64986;55.672;37.628;2023-07-08T04:06:25;99359.56;;;22.22;nan
76205;BME280;64986;55.672;37.628;2023-07-08T04:08:51;99367.19;;;22.34;nan
76205;BME280;64986;55.672;37.628;2023-07-08T04:11:19;99364.03;;;22.27;nan
76205;BME280;64986;55.672;37.628;2023-07-08T04:13:45;99378.25;;;22.27;nan
76205;BME280;64986;55.672;37.628;2023-07-08T04:16:18;99384.81;;;22.16;nan
76205;BME280;64986;55.672;37.628;2023-07-08T04:18:45;99388.25;;;21.87;nan
76205;BME280;64986;55.672;37.628;2023-07-08T04:21:10;99383.66;;;21.93;nan
76205;BME280;64986;55.672;37.628;2023-07-08T04:23:36;99378.53;;;21.97;nan
76205;BME280;64986;55.672;37.628;2023-07-08T04:26:01;99386.28;;;21.98;nan
76205;BME280;64986;55.672;37.628;2023-07-08T04:28:27;99379.66;;;21.91;nan
76205;BME280;64986;55.672;37.628;2023-07-08T04:30:53;99381.84;;;21.83;nan
76205;BME280;64986;55.672;37.628;2023-07-08T04:33:18;99378.94;;;21.80;nan
76205;BME280;64986;55.672;37.628;2023-07-08T04:35:44;99392.38;;;21.75;nan
76205;BME280;64986;55.672;37.628;2023-07-08T04:38:22;99390.63;;;21.94;nan
76205;BME280;64986;55.672;37.628;2023-07-08T04:40:49;99398.84;;;21.69;nan
76205;BME280;64986;55.672;37.628;2023-07-08T04:43:16;99392.78;;;21.58;nan
76205;BME280;64986;55.672;37.628;2023-07-08T04:45:44;99395.81;;;21.46;nan
76205;BME280;64986;55.672;37.628;2023-07-08T04:48:14;99410.09;;;21.31;nan
76205;BME280;64986;55.672;37.628;2023-07-08T04:50:44;99407.00;;;21.09;nan
76205;BME280;64986;55.672;37.628;2023-07-08T04:53:10;99402.94;;;21.12;nan
76205;BME280;64986;55.672;37.628;2023-07-08T04:55:38;99411.41;;;20.80;nan
76205;BME280;64986;55.672;37.628;2023-07-08T04:58:05;99392.16;;;20.67;nan
76205;BME280;64986;55.672;37.628;2023-07-08T05:00:30;99393.25;;;20.71;nan
76205;BME280;64986;55.672;37.628;2023-07-08T05:02:56;99389.78;;;20.61;nan
76205;BME280;64986;55.672;37.628;2023-07-08T05:05:22;99403.44;;;20.64;nan
76205;BME280;64986;55.672;37.628;2023-07-08T05:07:47;99412.22;;;20.75;nan
76205;BME280;64986;55.672;37.628;2023-07-08T05:10:15;99423.19;;;20.78;nan
76205;BME280;64986;55.672;37.628;2023-07-08T05:12:42;99429.34;;;20.79;nan
76205;BME280;64986;55.672;37.628;2023-07-08T05:15:08;99436.00;;;20.76;nan
76205;BME280;64986;55.672;37.628;2023-07-08T05:17:34;99435.53;;;20.64;nan
76205;BME280;64986;55.672;37.628;2023-07-08T05:19:59;99426.16;;;20.72;nan
76205;BME280;64986;55.672;37.628;2023-07-08T05:22:28;99431.16;;;20.89;nan
76205;BME280;64986;55.672;37.628;2023-07-08T05:24:54;99430.28;;;21.03;nan
76205;BME280;64986;55.672;37.628;2023-07-08T05:27:22;99434.47;;;21.25;nan
76205;BME280;64986;55.672;37.628;2023-07-08T05:29:48;99429.72;;;21.12;nan
76205;BME280;64986;55.672;37.628;2023-07-08T05:32:14;99414.75;;;21.11;nan
76205;BME280;64986;55.672;37.628;2023-07-08T05:34:40;99425.66;;;21.24;nan
76205;BME280;64986;55.672;37.628;2023-07-08T05:37:06;99417.06;;;21.32;nan
76205;BME280;64986;55.672;37.628;2023-07-08T05:39:31;99414.81;;;21.50;nan
76205;BME280;64986;55.672;37.628;2023-07-08T05:41:57;99415.00;;;21.58;nan
76205;BME280;64986;55.672;37.628;2023-07-08T05:44:23;99411.09;;;21.80;nan
76205;BME280;64986;55.672;37.628;2023-07-08T05:46:49;99407.25;;;21.91;nan
76205;BME280;64986;55.672;37.628;2023-07-08T05:49:15;99407.41;;;22.05;nan
76205;BME280;64986;55.672;37.628;2023-07-08T05:51:43;99406.31;;;22.11;nan
76205;BME280;64986;55.672;37.628;2023-07-08T05:54:09;99408.38;;;22.43;nan
76205;BME280;64986;55.672;37.628;2023-07-08T05:56:34;99393.03;;;22.49;nan
76205;BME280;64986;55.672;37.628;2023-07-08T05:59:00;99394.91;;;22.72;nan
76205;BME280;64986;55.672;37.628;2023-07-08T06:01:25;99393.81;;;22.73;nan
76205;BME280;64986;55.672;37.628;2023-07-08T06:03:51;99392.28;;;22.67;nan
76205;BME280;64986;55.672;37.628;2023-07-08T06:06:17;99402.00;;;22.63;nan
76205;BME280;64986;55.672;37.628;2023-07-08T06:08:43;99393.16;;;22.38;nan
76205;BME280;64986;55.672;37.628;2023-07-08T06:11:08;99383.53;;;22.37;nan
76205;BME280;64986;55.672;37.628;2023-07-08T06:13:34;99380.69;;;22.53;nan
76205;BME280;64986;55.672;37.628;2023-07-08T06:15:59;99383.25;;;22.82;nan
76205;BME280;64986;55.672;37.628;2023-07-08T06:18:25;99382.81;;;22.98;nan
76205;BME280;64986;55.672;37.628;2023-07-08T06:20:52;99387.03;;;22.81;nan
76205;BME280;64986;55.672;37.628;2023-07-08T06:23:18;99381.19;;;22.55;nan
76205;BME280;64986;55.672;37.628;2023-07-08T06:25:44;99366.16;;;22.54;nan
76205;BME280;64986;55.672;37.628;2023-07-08T06:28:09;99370.03;;;22.90;nan
76205;BME280;64986;55.672;37.628;2023-07-08T06:30:35;99379.59;;;22.96;nan
76205;BME280;64986;55.672;37.628;2023-07-08T06:33:00;99372.00;;;23.04;nan
76205;BME280;64986;55.672;37.628;2023-07-08T06:35:26;99373.31;;;23.06;nan
76205;BME280;64986;55.672;37.628;2023-07-08T06:37:51;99369.88;;;23.19;nan
76205;BME280;64986;55.672;37.628;2023-07-08T06:40:17;99363.34;;;23.44;nan
76205;BME280;64986;55.672;37.628;2023-07-08T06:42:44;99355.63;;;23.57;nan
76205;BME280;64986;55.672;37.628;2023-07-08T06:45:10;99350.63;;;23.69;nan
76205;BME280;64986;55.672;37.628;2023-07-08T06:47:36;99345.13;;;23.60;nan
76205;BME280;64986;55.672;37.628;2023-07-08T06:50:01;99351.34;;;23.56;nan
76205;BME280;64986;55.672;37.628;2023-07-08T06:52:27;99367.06;;;23.67;nan
76205;BME280;64986;55.672;37.628;2023-07-08T06:55:05;99354.00;;;23.61;nan
76205;BME280;64986;55.672;37.628;2023-07-08T06:57:31;99360.28;;;23.70;nan
76205;BME280;64986;55.672;37.628;2023-07-08T06:59:57;99340.84;;;23.40;nan
76205;BME280;64986;55.672;37.628;2023-07-08T07:02:23;99365.47;;;23.10;nan
76205;BME280;64986;55.672;37.628;2023-07-08T07:04:49;99358.72;;;22.93;nan
76205;BME280;64986;55.672;37.628;2023-07-08T07:07:14;99352.31;;;22.89;nan
76205;BME280;64986;55.672;37.628;2023-07-08T07:09:40;99360.41;;;23.08;nan
76205;BME280;64986;55.672;37.628;2023-07-08T07:12:06;99370.97;;;23.18;nan
76205;BME280;64986;55.672;37.628;2023-07-08T07:14:32;99363.22;;;23.17;nan
76205;BME280;64986;55.672;37.628;2023-07-08T07:16:57;99360.25;;;23.00;nan
76205;BME280;64986;55.672;37.628;2023-07-08T07:19:23;99360.31;;;22.94;nan
76205;BME280;64986;55.672;37.628;2023-07-08T07:21:49;99367.88;;;22.92;nan
76205;BME280;64986;55.672;37.628;2023-07-08T07:24:14;99353.94;;;22.90;nan
76205;BME280;64986;55.672;37.628;2023-07-08T07:26:39;99350.47;;;22.85;nan
76205;BME280;64986;55.672;37.628;2023-07-08T07:29:05;99364.31;;;22.73;nan
76205;BME280;64986;55.672;37.628;2023-07-08T07:31:31;99367.75;;;22.79;nan
76205;BME280;64986;55.672;37.628;2023-07-08T07:33:59;99358.47;;;22.47;nan
76205;BME280;64986;55.672;37.628;2023-07-08T07:36:25;99362.44;;;22.50;nan
76205;BME280;64986;55.672;37.628;2023-07-08T07:38:50;99368.56;;;22.55;nan
76205;BME280;64986;55.672;37.628;2023-07-08T07:41:16;99368.31;;;22.52;nan
76205;BME280;64986;55.672;37.628;2023-07-08T07:43:41;99362.59;;;22.82;nan
76205;BME280;64986;55.672;37.628;2023-07-08T07:46:07;99372.50;;;23.43;nan
76205;BME280;64986;55.672;37.628;2023-07-08T07:48:33;99368.09;;;23.85;nan
76205;BME280;64986;55.672;37.628;2023-07-08T07:50:59;99377.91;;;24.08;nan
76205;BME280;64986;55.672;37.628;2023-07-08T07:53:25;99382.38;;;23.67;nan
76205;BME280;64986;55.672;37.628;2023-07-08T07:55:58;99404.09;;;23.14;nan
76205;BME280;64986;55.672;37.628;2023-07-08T07:58:24;99385.84;;;23.11;nan
76205;BME280;64986;55.672;37.628;2023-07-08T08:00:50;99398.50;;;23.29;nan
76205;BME280;64986;55.672;37.628;2023-07-08T08:03:16;99386.59;;;23.35;nan
76205;BME280;64986;55.672;37.628;2023-07-08T08:05:42;99394.91;;;22.96;nan
76205;BME280;64986;55.672;37.628;2023-07-08T08:08:08;99395.16;;;22.76;nan
76205;BME280;64986;55.672;37.628;2023-07-08T08:10:34;99411.97;;;22.81;nan
76205;BME280;64986;55.672;37.628;2023-07-08T08:13:00;99389.91;;;22.65;nan
76205;BME280;64986;55.672;37.628;2023-07-08T08:15:26;99404.00;;;22.76;nan
76205;BME280;64986;55.672;37.628;2023-07-08T08:17:51;99394.53;;;22.60;nan
76205;BME280;64986;55.672;37.628;2023-07-08T08:20:19;99414.66;;;22.33;nan
76205;BME280;64986;55.672;37.628;2023-07-08T08:22:45;99411.19;;;22.33;nan
76205;BME280;64986;55.672;37.628;2023-07-08T08:25:11;99413.75;;;22.43;nan
76205;BME280;64986;55.672;37.628;2023-07-08T08:27:37;99421.19;;;22.51;nan
76205;BME280;64986;55.672;37.628;2023-07-08T08:30:05;99409.25;;;22.62;nan
76205;BME280;64986;55.672;37.628;2023-07-08T08:32:31;99422.00;;;22.76;nan
76205;BME280;64986;55.672;37.628;2023-07-08T08:34:56;99410.69;;;22.79;nan
76205;BME280;64986;55.672;37.628;2023-07-08T08:37:22;99388.69;;;23.01;nan
76205;BME280;64986;55.672;37.628;2023-07-08T08:39:47;99404.59;;;23.16;nan
76205;BME280;64986;55.672;37.628;2023-07-08T08:43:15;99407.22;;;23.59;nan
76205;BME280;64986;55.672;37.628;2023-07-08T08:45:22;99403.88;;;23.48;nan
76205;BME280;64986;55.672;37.628;2023-07-08T08:47:54;99391.88;;;23.40;nan
76205;BME280;64986;55.672;37.628;2023-07-08T08:50:32;99406.19;;;23.54;nan
76205;BME280;64986;55.672;37.628;2023-07-08T08:53:02;99407.72;;;23.23;nan
76205;BME280;64986;55.672;37.628;2023-07-08T08:55:30;99403.78;;;23.34;nan
76205;BME280;64986;55.672;37.628;2023-07-08T09:01:01;99406.84;;;23.46;nan
76205;BME280;64986;55.672;37.628;2023-07-08T09:06:01;99408.50;;;23.42;nan
76205;BME280;64986;55.672;37.628;2023-07-08T09:08:34;99410.25;;;23.52;nan
76205;BME280;64986;55.672;37.628;2023-07-08T09:13:44;99399.69;;;23.93;nan
76205;BME280;64986;55.672;37.628;2023-07-08T09:19:12;99404.06;;;25.04;nan
76205;BME280;64986;55.672;37.628;2023-07-08T09:24:20;99398.84;;;25.80;nan
76205;BME280;64986;55.672;37.628;2023-07-08T09:26:50;99402.00;;;26.05;nan
76205;BME280;64986;55.672;37.628;2023-07-08T09:29:17;99396.38;;;25.70;nan
76205;BME280;64986;55.672;37.628;2023-07-08T09:31:43;99387.22;;;25.35;nan
76205;BME280;64986;55.672;37.628;2023-07-08T09:34:14;99391.69;;;25.17;nan
76205;BME280;64986;55.672;37.628;2023-07-08T09:36:42;99400.47;;;25.09;nan
76205;BME280;64986;55.672;37.628;2023-07-08T09:39:17;99400.47;;;25.09;nan
76205;BME280;64986;55.672;37.628;2023-07-08T09:41:45;99401.28;;;24.82;nan
76205;BME280;64986;55.672;37.628;2023-07-08T09:44:21;99402.16;;;24.91;nan
76205;BME280;64986;55.672;37.628;2023-07-08T09:46:51;99416.22;;;24.47;nan
76205;BME280;64986;55.672;37.628;2023-07-08T09:49:20;99412.88;;;24.41;nan
76205;BME280;64986;55.672;37.628;2023-07-08T09:51:46;99391.31;;;24.55;nan
76205;BME280;64986;55.672;37.628;2023-07-08T09:54:15;99399.25;;;25.15;nan
76205;BME280;64986;55.672;37.628;2023-07-08T09:56:43;99408.19;;;25.60;nan
76205;BME280;64986;55.672;37.628;2023-07-08T09:59:12;99397.63;;;26.40;nan
76205;BME280;64986;55.672;37.628;2023-07-08T10:01:40;99391.97;;;26.67;nan
76205;BME280;64986;55.672;37.628;2023-07-08T10:04:06;99395.88;;;27.96;nan
76205;BME280;64986;55.672;37.628;2023-07-08T10:06:33;99406.19;;;28.88;nan
76205;BME280;64986;55.672;37.628;2023-07-08T10:16:29;99451.22;;;29.93;nan
76205;BME280;64986;55.672;37.628;2023-07-08T10:18:56;99400.47;;;29.31;nan
76205;BME280;64986;55.672;37.628;2023-07-08T10:26:37;99399.88;;;27.55;nan
76205;BME280;64986;55.672;37.628;2023-07-08T10:32:20;99404.59;;;26.98;nan
76205;BME280;64986;55.672;37.628;2023-07-08T10:35:45;99392.13;;;27.45;nan
76205;BME280;64986;55.672;37.628;2023-07-08T10:40:50;99394.78;;;31.33;nan
76205;BME280;64986;55.672;37.628;2023-07-08T10:43:43;99385.16;;;30.83;nan
76205;BME280;64986;55.672;37.628;2023-07-08T10:51:26;99381.19;;;29.12;nan
76205;BME280;64986;55.672;37.628;2023-07-08T10:56:51;99391.47;;;30.63;nan
76205;BME280;64986;55.672;37.628;2023-07-08T11:05:10;99391.31;;;32.20;nan
76205;BME280;64986;55.672;37.628;2023-07-08T11:10:39;99379.50;;;36.36;nan
76205;BME280;64986;55.672;37.628;2023-07-08T11:18:30;99374.88;;;31.29;nan
76205;BME280;64986;55.672;37.628;2023-07-08T11:23:43;99377.72;;;29.23;nan
76205;BME280;64986;55.672;37.628;2023-07-08T11:26:16;99378.22;;;28.75;nan
76205;BME280;64986;55.672;37.628;2023-07-08T11:28:44;99377.00;;;28.64;nan
76205;BME280;64986;55.672;37.628;2023-07-08T11:31:10;99394.53;;;28.96;nan
76205;BME280;64986;55.672;37.628;2023-07-08T11:33:38;99383.81;;;28.99;nan
76205;BME280;64986;55.672;37.628;2023-07-08T11:36:05;99379.63;;;28.05;nan
76205;BME280;64986;55.672;37.628;2023-07-08T11:38:32;99391.09;;;28.48;nan
76205;BME280;64986;55.672;37.628;2023-07-08T11:41:11;99403.06;;;30.02;nan
76205;BME280;64986;55.672;37.628;2023-07-08T11:46:28;65559.31;;;-144.76;100.00
76205;BME280;64986;55.672;37.628;2023-07-08T11:49:10;99374.72;;;35.48;nan
76205;BME280;64986;55.672;37.628;2023-07-08T11:51:39;99373.03;;;36.62;nan
76205;BME280;64986;55.672;37.628;2023-07-08T11:54:20;99385.00;;;35.95;nan
76205;BME280;64986;55.672;37.628;2023-07-08T11:59:25;99360.00;;;39.24;nan
76205;BME280;64986;55.672;37.628;2023-07-08T12:02:02;99357.97;;;39.35;nan
76205;BME280;64986;55.672;37.628;2023-07-08T12:04:34;99366.44;;;38.68;nan
76205;BME280;64986;55.672;37.628;2023-07-08T12:07:06;99349.91;;;38.85;nan
76205;BME280;64986;55.672;37.628;2023-07-08T12:09:58;99362.81;;;41.07;nan
76205;BME280;64986;55.672;37.628;2023-07-08T12:12:32;99365.72;;;42.08;nan
76205;BME280;64986;55.672;37.628;2023-07-08T12:17:38;99360.91;;;41.04;nan
76205;BME280;64986;55.672;37.628;2023-07-08T12:20:12;99369.16;;;39.73;nan
76205;BME280;64986;55.672;37.628;2023-07-08T12:22:41;99365.47;;;39.28;nan
76205;BME280;64986;55.672;37.628;2023-07-08T12:25:18;99361.34;;;40.20;100.00
76205;BME280;64986;55.672;37.628;2023-07-08T12:27:45;99367.00;;;40.88;nan
76205;BME280;64986;55.672;37.628;2023-07-08T12:30:12;99361.03;;;40.93;nan
76205;BME280;64986;55.672;37.628;2023-07-08T12:32:39;99371.34;;;41.77;nan
76205;BME280;64986;55.672;37.628;2023-07-08T12:35:19;99369.47;;;41.44;nan
76205;BME280;64986;55.672;37.628;2023-07-08T12:37:46;99378.22;;;41.39;nan
76205;BME280;64986;55.672;37.628;2023-07-08T12:40:12;99362.50;;;40.64;nan
76205;BME280;64986;55.672;37.628;2023-07-08T12:42:38;99368.94;;;41.52;nan
76205;BME280;64986;55.672;37.628;2023-07-08T12:45:13;99383.44;;;42.37;nan
76205;BME280;64986;55.672;37.628;2023-07-08T12:47:39;99366.16;;;41.83;nan
76205;BME280;64986;55.672;37.628;2023-07-08T12:50:04;99365.94;;;42.21;nan
76205;BME280;64986;55.672;37.628;2023-07-08T12:52:30;99366.97;;;43.50;nan
76205;BME280;64986;55.672;37.628;2023-07-08T12:54:55;99370.91;;;43.68;nan
76205;BME280;64986;55.672;37.628;2023-07-08T12:57:21;65559.31;;;-144.76;100.00
76205;BME280;64986;55.672;37.628;2023-07-08T12:59:47;99374.81;;;45.74;nan
76205;BME280;64986;55.672;37.628;2023-07-08T13:02:18;99367.97;;;44.24;nan
76205;BME280;64986;55.672;37.628;2023-07-08T13:04:46;99371.28;;;42.75;nan
76205;BME280;64986;55.672;37.628;2023-07-08T13:07:35;99374.91;;;43.11;nan
76205;BME280;64986;55.672;37.628;2023-07-08T13:10:04;99369.13;;;42.19;nan
76205;BME280;64986;55.672;37.628;2023-07-08T13:12:32;99362.56;;;40.60;nan
76205;BME280;64986;55.672;37.628;2023-07-08T13:15:02;99374.38;;;38.41;nan
76205;BME280;64986;55.672;37.628;2023-07-08T13:17:28;99355.41;;;38.89;nan
76205;BME280;64986;55.672;37.628;2023-07-08T13:19:55;99365.91;;;41.13;nan
76205;BME280;64986;55.672;37.628;2023-07-08T13:22:22;99365.72;;;38.17;nan
76205;BME280;64986;55.672;37.628;2023-07-08T13:24:49;99365.72;;;38.17;nan
76205;BME280;64986;55.672;37.628;2023-07-08T13:27:25;99359.94;;;37.03;nan
76205;BME280;64986;55.672;37.628;2023-07-08T13:39:44;99345.50;;;40.69;nan
76205;BME280;64986;55.672;37.628;2023-07-08T13:42:10;99349.09;;;38.96;nan
76205;BME280;64986;55.672;37.628;2023-07-08T13:54:38;99340.34;;;33.65;nan
76205;BME280;64986;55.672;37.628;2023-07-08T13:57:10;99348.69;;;33.14;nan
76205;BME280;64986;55.672;37.628;2023-07-08T13:59:36;99343.56;;;32.58;nan
76205;BME280;64986;55.672;37.628;2023-07-08T14:02:14;99345.97;;;32.44;nan
76205;BME280;64986;55.672;37.628;2023-07-08T14:04:41;99338.69;;;31.57;nan
76205;BME280;64986;55.672;37.628;2023-07-08T14:07:20;99343.56;;;32.58;nan
76205;BME280;64986;55.672;37.628;2023-07-08T14:09:46;99323.38;;;33.98;nan
76205;BME280;64986;55.672;37.628;2023-07-08T14:12:12;99311.09;;;34.38;nan
76205;BME280;64986;55.672;37.628;2023-07-08T14:14:38;99332.25;;;33.49;nan
76205;BME280;64986;55.672;37.628;2023-07-08T14:17:04;99320.97;;;32.57;nan
76205;BME280;64986;55.672;37.628;2023-07-08T14:19:31;99319.94;;;32.15;nan
76205;BME280;64986;55.672;37.628;2023-07-08T14:22:01;99391.91;;;32.29;nan
76205;BME280;64986;55.672;37.628;2023-07-08T14:24:27;99305.88;;;32.28;nan
76205;BME280;64986;55.672;37.628;2023-07-08T14:26:53;99304.94;;;33.49;nan
76205;BME280;64986;55.672;37.628;2023-07-08T14:29:19;99302.56;;;36.18;nan
76205;BME280;64986;55.672;37.628;2023-07-08T14:31:45;99302.66;;;36.91;nan
76205;BME280;64986;55.672;37.628;2023-07-08T14:34:23;99305.78;;;36.93;nan
76205;BME280;64986;55.672;37.628;2023-07-08T14:36:49;99293.97;;;35.31;nan
76205;BME280;64986;55.672;37.628;2023-07-08T14:39:16;99295.75;;;34.56;nan
76205;BME280;64986;55.672;37.628;2023-07-08T14:41:44;99285.63;;;35.98;nan
76205;BME280;64986;55.672;37.628;2023-07-08T14:44:22;99297.31;;;38.51;nan
76205;BME280;64986;55.672;37.628;2023-07-08T14:46:49;99291.56;;;39.23;nan